createdAt,value
2022-09-16T00:00:08.953Z,14.05
2022-09-16T00:01:09.026Z,14.08
2022-09-16T00:02:08.929Z,13.98
2022-09-16T00:03:08.875Z,14.00
2022-09-16T00:04:08.857Z,14.09
2022-09-16T00:05:08.870Z,14.09
2022-09-16T00:06:08.822Z,14.05
2022-09-16T00:07:08.814Z,13.97
2022-09-16T00:08:08.775Z,13.98
2022-09-16T00:09:08.752Z,13.98
2022-09-16T00:10:08.734Z,13.94
2022-09-16T00:11:08.730Z,14.03
2022-09-16T00:12:08.696Z,14.04
2022-09-16T00:13:08.676Z,14.00
2022-09-16T00:14:08.659Z,13.96
2022-09-16T00:15:08.661Z,13.90
2022-09-16T00:16:08.660Z,13.93
2022-09-16T00:17:08.597Z,14.01
2022-09-16T00:18:08.576Z,13.93
2022-09-16T00:19:08.560Z,13.86
2022-09-16T00:20:08.543Z,13.86
2022-09-16T00:21:08.535Z,13.91
2022-09-16T00:22:08.502Z,13.83
2022-09-16T00:23:08.478Z,13.94
2022-09-16T00:24:08.456Z,13.83
2022-09-16T00:25:08.440Z,13.80
2022-09-16T00:26:08.447Z,13.86
2022-09-16T00:27:08.397Z,13.83
2022-09-16T00:28:08.381Z,13.85
2022-09-16T00:29:08.360Z,13.85
2022-09-16T00:30:08.335Z,13.80
2022-09-16T00:31:08.474Z,13.86
2022-09-16T00:32:08.312Z,13.83
2022-09-16T00:33:08.276Z,13.83
2022-09-16T00:34:08.256Z,13.83
2022-09-16T00:35:08.247Z,13.76
2022-09-16T00:36:08.218Z,13.80
2022-09-16T00:37:08.224Z,13.79
2022-09-16T00:38:08.177Z,13.76
2022-09-16T00:39:08.159Z,13.71
2022-09-16T00:40:08.161Z,13.75
2022-09-16T00:41:08.136Z,13.71
2022-09-16T00:42:08.114Z,13.68
2022-09-16T00:43:08.085Z,13.67
2022-09-16T00:44:08.054Z,13.75
2022-09-16T00:45:08.038Z,13.67
2022-09-16T00:46:08.019Z,13.65
2022-09-16T00:47:08.113Z,13.64
2022-09-16T00:48:08.002Z,13.68
2022-09-16T00:49:07.977Z,13.60
2022-09-16T00:50:07.944Z,13.58
2022-09-16T00:51:07.924Z,13.58
2022-09-16T00:52:07.905Z,13.58
2022-09-16T00:53:07.881Z,13.61
2022-09-16T00:54:07.899Z,13.51
2022-09-16T00:55:07.859Z,13.46
2022-09-16T00:56:07.823Z,13.49
2022-09-16T00:57:07.802Z,13.49
2022-09-16T00:58:07.785Z,13.55
2022-09-16T00:59:07.760Z,13.53
2022-09-16T01:00:07.761Z,13.49
2022-09-16T01:01:07.808Z,13.42
2022-09-16T01:02:07.730Z,13.46
2022-09-16T01:03:07.678Z,13.36
2022-09-16T01:04:07.691Z,13.43
2022-09-16T01:05:07.665Z,13.46
2022-09-16T01:06:07.628Z,13.47
2022-09-16T01:07:07.617Z,13.46
2022-09-16T01:08:07.584Z,13.51
2022-09-16T01:09:07.581Z,13.51
2022-09-16T01:10:07.540Z,13.53
2022-09-16T01:11:07.518Z,13.51
2022-09-16T01:12:07.498Z,13.49
2022-09-16T01:13:07.482Z,13.45
2022-09-16T01:14:07.480Z,13.51
2022-09-16T01:15:07.438Z,13.46
2022-09-16T01:16:07.465Z,13.46
2022-09-16T01:17:07.417Z,13.47
2022-09-16T01:18:07.377Z,13.43
2022-09-16T01:19:07.362Z,13.45
2022-09-16T01:20:07.343Z,13.53
2022-09-16T01:21:07.339Z,13.51
2022-09-16T01:22:07.312Z,13.51
2022-09-16T01:23:07.280Z,13.55
2022-09-16T01:24:07.255Z,13.46
2022-09-16T01:25:07.254Z,13.49
2022-09-16T01:26:07.215Z,13.55
2022-09-16T01:27:07.198Z,13.51
2022-09-16T01:28:07.178Z,13.53
2022-09-16T01:29:07.181Z,13.47
2022-09-16T01:30:07.140Z,13.51
2022-09-16T01:31:07.192Z,13.49
2022-09-16T01:32:07.128Z,13.47
2022-09-16T01:33:07.078Z,13.54
2022-09-16T01:34:07.097Z,13.53
2022-09-16T01:35:07.043Z,13.54
2022-09-16T01:36:07.017Z,13.49
2022-09-16T01:37:07.001Z,13.61
2022-09-16T01:38:06.976Z,13.53
2022-09-16T01:39:06.957Z,13.58
2022-09-16T01:40:06.964Z,13.58
2022-09-16T01:41:06.919Z,13.57
2022-09-16T01:42:06.898Z,13.58
2022-09-16T01:43:06.874Z,13.61
2022-09-16T01:44:06.858Z,13.64
2022-09-16T01:45:06.832Z,13.65
2022-09-16T01:46:06.882Z,13.60
2022-09-16T01:47:06.815Z,13.57
2022-09-16T01:48:06.793Z,13.60
2022-09-16T01:49:06.763Z,13.58
2022-09-16T01:50:06.751Z,13.58
2022-09-16T01:51:06.713Z,13.60
2022-09-16T01:52:06.714Z,13.64
2022-09-16T01:53:06.693Z,13.60
2022-09-16T01:54:06.665Z,13.60
2022-09-16T01:55:06.640Z,13.53
2022-09-16T01:56:06.620Z,13.53
2022-09-16T01:57:06.595Z,13.57
2022-09-16T01:58:06.592Z,13.58
2022-09-16T01:59:06.557Z,13.61
2022-09-16T02:00:06.540Z,13.58
2022-09-16T02:01:06.517Z,13.64
2022-09-16T02:02:06.636Z,13.68
2022-09-16T02:03:06.473Z,13.60
2022-09-16T02:04:06.452Z,13.57
2022-09-16T02:05:06.435Z,13.60
2022-09-16T02:06:06.411Z,13.55
2022-09-16T02:07:06.391Z,13.57
2022-09-16T02:08:06.389Z,13.65
2022-09-16T02:09:06.373Z,13.65
2022-09-16T02:10:06.349Z,13.67
2022-09-16T02:11:06.325Z,13.58
2022-09-16T02:12:06.292Z,13.61
2022-09-16T02:13:06.295Z,13.53
2022-09-16T02:14:06.252Z,13.54
2022-09-16T02:15:06.230Z,13.60
2022-09-16T02:16:06.258Z,13.63
2022-09-16T02:17:06.193Z,13.60
2022-09-16T02:18:06.173Z,13.49
2022-09-16T02:19:06.180Z,13.46
2022-09-16T02:20:06.168Z,13.49
2022-09-16T02:21:06.111Z,13.51
2022-09-16T02:22:06.092Z,13.49
2022-09-16T02:23:06.075Z,13.47
2022-09-16T02:24:06.050Z,13.46
2022-09-16T02:25:06.033Z,13.30
2022-09-16T02:26:06.039Z,13.40
2022-09-16T02:27:05.999Z,13.32
2022-09-16T02:28:05.981Z,13.38
2022-09-16T02:29:05.961Z,13.36
2022-09-16T02:30:05.927Z,13.40
2022-09-16T02:31:06.018Z,13.27
2022-09-16T02:32:05.889Z,13.30
2022-09-16T02:33:05.869Z,13.29
2022-09-16T02:34:05.854Z,13.42
2022-09-16T02:35:05.847Z,13.27
2022-09-16T02:36:05.806Z,13.23
2022-09-16T02:37:05.807Z,13.26
2022-09-16T02:38:05.767Z,13.27
2022-09-16T02:39:05.747Z,13.35
2022-09-16T02:40:05.794Z,13.27
2022-09-16T02:41:05.726Z,13.30
2022-09-16T02:42:05.696Z,13.24
2022-09-16T02:43:05.670Z,13.27
2022-09-16T02:44:05.653Z,13.19
2022-09-16T02:45:05.643Z,13.19
2022-09-16T02:46:05.640Z,13.21
2022-09-16T02:47:05.589Z,13.27
2022-09-16T02:48:05.589Z,13.19
2022-09-16T02:49:05.549Z,13.23
2022-09-16T02:50:05.525Z,13.14
2022-09-16T02:51:05.517Z,13.16
2022-09-16T02:52:05.502Z,13.21
2022-09-16T02:53:05.471Z,13.19
2022-09-16T02:54:05.451Z,13.24
2022-09-16T02:55:05.422Z,13.20
2022-09-16T02:56:05.404Z,13.16
2022-09-16T02:57:05.399Z,13.17
2022-09-16T02:58:05.366Z,13.24
2022-09-16T02:59:05.364Z,13.13
2022-09-16T03:00:05.325Z,13.11
2022-09-16T03:01:05.297Z,13.11
2022-09-16T03:02:05.328Z,13.16
2022-09-16T03:03:05.285Z,13.05
2022-09-16T03:04:05.261Z,13.02
2022-09-16T03:05:05.221Z,13.05
2022-09-16T03:06:05.219Z,13.01
2022-09-16T03:07:05.182Z,13.05
2022-09-16T03:08:05.167Z,13.01
2022-09-16T03:09:05.141Z,13.05
2022-09-16T03:10:05.139Z,13.01
2022-09-16T03:11:05.102Z,12.99
2022-09-16T03:12:05.100Z,13.02
2022-09-16T03:13:05.065Z,13.02
2022-09-16T03:14:05.038Z,13.04
2022-09-16T03:15:05.031Z,12.98
2022-09-16T03:16:05.046Z,12.93
2022-09-16T03:17:04.977Z,13.02
2022-09-16T03:18:04.957Z,13.02
2022-09-16T03:19:04.946Z,12.99
2022-09-16T03:20:04.932Z,12.98
2022-09-16T03:21:04.892Z,12.91
2022-09-16T03:22:04.874Z,12.91
2022-09-16T03:23:04.855Z,12.95
2022-09-16T03:24:04.835Z,12.95
2022-09-16T03:25:04.891Z,12.87
2022-09-16T03:26:04.795Z,12.79
2022-09-16T03:27:04.783Z,12.88
2022-09-16T03:28:04.764Z,12.87
2022-09-16T03:29:04.737Z,12.86
2022-09-16T03:30:04.739Z,12.88
2022-09-16T03:31:04.747Z,12.86
2022-09-16T03:32:04.672Z,12.80
2022-09-16T03:33:04.661Z,12.77
2022-09-16T03:34:04.632Z,12.83
2022-09-16T03:35:04.620Z,12.80
2022-09-16T03:36:04.613Z,12.88
2022-09-16T03:37:04.588Z,12.93
2022-09-16T03:38:04.552Z,12.90
2022-09-16T03:39:04.533Z,12.90
2022-09-16T03:40:04.563Z,13.01
2022-09-16T03:41:04.489Z,12.99
2022-09-16T03:42:04.489Z,12.91
2022-09-16T03:43:04.465Z,12.87
2022-09-16T03:44:04.564Z,12.87
2022-09-16T03:45:04.409Z,12.86
2022-09-16T03:46:04.458Z,12.84
2022-09-16T03:47:04.365Z,12.87
2022-09-16T03:48:04.363Z,12.79
2022-09-16T03:49:04.327Z,12.79
2022-09-16T03:50:04.329Z,12.71
2022-09-16T03:51:04.295Z,12.71
2022-09-16T03:52:04.265Z,12.76
2022-09-16T03:53:04.268Z,12.80
2022-09-16T03:54:04.227Z,12.73
2022-09-16T03:55:04.249Z,12.79
2022-09-16T03:56:04.188Z,12.72
2022-09-16T03:57:04.161Z,12.81
2022-09-16T03:58:04.173Z,12.79
2022-09-16T03:59:04.135Z,12.84
2022-09-16T04:00:04.098Z,12.88
2022-09-16T04:01:04.076Z,12.91
2022-09-16T04:02:04.059Z,12.91
2022-09-16T04:03:04.185Z,12.91
2022-09-16T04:04:04.039Z,12.91
2022-09-16T04:05:03.998Z,12.99
2022-09-16T04:06:03.995Z,12.99
2022-09-16T04:07:04.017Z,12.96
2022-09-16T04:08:03.939Z,13.06
2022-09-16T04:09:03.913Z,13.02
2022-09-16T04:10:03.911Z,12.91
2022-09-16T04:11:03.898Z,12.98
2022-09-16T04:12:03.867Z,12.95
2022-09-16T04:13:03.833Z,12.99
2022-09-16T04:14:03.811Z,12.98
2022-09-16T04:15:03.802Z,12.99
2022-09-16T04:16:03.890Z,12.96
2022-09-16T04:17:03.772Z,13.02
2022-09-16T04:18:03.731Z,13.01
2022-09-16T04:19:04.085Z,12.95
2022-09-16T04:20:03.708Z,12.96
2022-09-16T04:21:03.665Z,12.99
2022-09-16T04:22:03.657Z,12.98
2022-09-16T04:23:03.648Z,12.98
2022-09-16T04:24:03.614Z,12.91
2022-09-16T04:25:03.590Z,12.98
2022-09-16T04:26:03.574Z,12.91
2022-09-16T04:27:03.545Z,12.95
2022-09-16T04:28:03.543Z,12.96
2022-09-16T04:29:03.503Z,12.90
2022-09-16T04:30:03.484Z,12.93
2022-09-16T04:31:03.515Z,12.91
2022-09-16T04:32:03.455Z,12.87
2022-09-16T04:33:03.453Z,12.93
2022-09-16T04:34:03.420Z,12.91
2022-09-16T04:35:03.384Z,12.91
2022-09-16T04:36:03.361Z,12.84
2022-09-16T04:37:03.344Z,12.91
2022-09-16T04:38:03.322Z,12.93
2022-09-16T04:39:03.331Z,12.90
2022-09-16T04:40:05.035Z,12.88
2022-09-16T04:41:03.264Z,12.91
2022-09-16T04:42:03.237Z,12.86
2022-09-16T04:43:03.237Z,12.87
2022-09-16T04:44:03.212Z,12.80
2022-09-16T04:45:03.184Z,12.84
2022-09-16T04:46:03.207Z,12.81
2022-09-16T04:47:03.148Z,12.80
2022-09-16T04:48:03.119Z,12.76
2022-09-16T04:49:03.119Z,12.79
2022-09-16T04:50:03.086Z,12.72
2022-09-16T04:51:03.057Z,12.79
2022-09-16T04:52:03.054Z,12.79
2022-09-16T04:53:03.037Z,12.79
2022-09-16T04:54:02.998Z,12.81
2022-09-16T04:55:02.993Z,12.77
2022-09-16T04:56:02.959Z,12.77
2022-09-16T04:57:02.936Z,12.83
2022-09-16T04:58:02.930Z,12.79
2022-09-16T04:59:02.895Z,12.73
2022-09-16T05:00:02.891Z,12.73
2022-09-16T05:01:02.953Z,12.71
2022-09-16T05:02:02.855Z,12.63
2022-09-16T05:03:02.848Z,12.63
2022-09-16T05:04:02.801Z,12.65
2022-09-16T05:05:02.788Z,12.59
2022-09-16T05:06:02.771Z,12.53
2022-09-16T05:07:02.732Z,12.53
2022-09-16T05:08:02.716Z,12.63
2022-09-16T05:09:02.701Z,12.63
2022-09-16T05:10:02.708Z,12.63
2022-09-16T05:11:02.651Z,12.66
2022-09-16T05:12:02.637Z,12.71
2022-09-16T05:13:02.613Z,12.73
2022-09-16T05:14:02.592Z,12.77
2022-09-16T05:15:02.567Z,12.77
2022-09-16T05:16:02.634Z,12.81
2022-09-16T05:17:02.525Z,12.84
2022-09-16T05:18:02.515Z,12.80
2022-09-16T05:19:02.487Z,12.83
2022-09-16T05:20:02.496Z,12.77
2022-09-16T05:21:02.446Z,12.77
2022-09-16T05:22:02.437Z,12.80
2022-09-16T05:23:02.504Z,12.81
2022-09-16T05:24:02.393Z,12.76
2022-09-16T05:25:02.376Z,12.79
2022-09-16T05:26:02.370Z,12.80
2022-09-16T05:27:02.326Z,12.76
2022-09-16T05:28:02.303Z,12.80
2022-09-16T05:29:02.284Z,12.72
2022-09-16T05:30:02.290Z,12.76
2022-09-16T05:31:02.265Z,12.72
2022-09-16T05:32:02.238Z,12.76
2022-09-16T05:33:02.211Z,12.72
2022-09-16T05:34:02.229Z,12.77
2022-09-16T05:35:02.159Z,12.77
2022-09-16T05:36:02.139Z,12.76
2022-09-16T05:37:02.133Z,12.79
2022-09-16T05:38:02.110Z,12.83
2022-09-16T05:39:22.152Z,12.73
2022-09-16T05:40:02.106Z,12.88
2022-09-16T05:41:02.042Z,12.88
2022-09-16T05:42:02.030Z,12.87
2022-09-16T05:43:02.003Z,12.86
2022-09-16T05:44:01.977Z,12.84
2022-09-16T05:45:01.984Z,12.88
2022-09-16T05:46:02.041Z,12.86
2022-09-16T05:47:01.918Z,12.91
2022-09-16T05:48:01.895Z,12.88
2022-09-16T05:49:01.895Z,12.95
2022-09-16T05:50:01.870Z,12.99
2022-09-16T05:51:01.855Z,12.98
2022-09-16T05:52:01.809Z,12.91
2022-09-16T05:53:01.794Z,13.01
2022-09-16T05:54:01.790Z,13.02
2022-09-16T05:55:01.859Z,12.96
2022-09-16T05:56:01.743Z,13.02
2022-09-16T05:57:06.663Z,12.98
2022-09-16T05:58:01.698Z,13.02
2022-09-16T05:59:01.675Z,13.05
2022-09-16T06:00:01.649Z,13.08
2022-09-16T06:01:01.654Z,12.98
2022-09-16T06:02:01.668Z,13.14
2022-09-16T06:03:01.589Z,13.06
2022-09-16T06:04:01.578Z,13.13
2022-09-16T06:05:01.549Z,13.13
2022-09-16T06:06:01.550Z,13.13
2022-09-16T06:07:01.546Z,13.19
2022-09-16T06:08:01.492Z,13.16
2022-09-16T06:09:01.466Z,13.23
2022-09-16T06:10:01.472Z,13.23
2022-09-16T06:11:01.523Z,13.21
2022-09-16T06:12:02.364Z,13.23
2022-09-16T06:13:01.384Z,13.23
2022-09-16T06:14:01.370Z,13.30
2022-09-16T06:15:01.372Z,13.27
2022-09-16T06:16:01.390Z,13.27
2022-09-16T06:17:01.310Z,13.26
2022-09-16T06:18:06.083Z,13.27
2022-09-16T06:19:01.262Z,13.39
2022-09-16T06:20:01.255Z,13.32
2022-09-16T06:21:01.247Z,13.38
2022-09-16T06:22:01.206Z,13.35
2022-09-16T06:23:01.211Z,13.38
2022-09-16T06:24:01.166Z,13.40
2022-09-16T06:25:01.151Z,13.45
2022-09-16T06:26:01.123Z,13.47
2022-09-16T06:27:01.204Z,13.49
2022-09-16T06:28:01.085Z,13.51
2022-09-16T06:29:01.086Z,13.55
2022-09-16T06:30:01.038Z,13.43
2022-09-16T06:31:01.099Z,13.46
2022-09-16T06:32:01.006Z,13.53
2022-09-16T06:33:00.974Z,13.57
2022-09-16T06:34:00.963Z,13.46
2022-09-16T06:35:01.006Z,13.54
2022-09-16T06:36:00.920Z,13.47
2022-09-16T06:37:00.904Z,13.51
2022-09-16T06:38:00.881Z,13.51
2022-09-16T06:39:00.880Z,13.49
2022-09-16T06:40:00.857Z,13.57
2022-09-16T06:41:00.817Z,13.57
2022-09-16T06:42:00.801Z,13.63
2022-09-16T06:43:00.874Z,13.60
2022-09-16T06:44:00.785Z,13.57
2022-09-16T06:45:00.791Z,13.58
2022-09-16T06:46:00.751Z,13.61
2022-09-16T06:47:00.700Z,13.55
2022-09-16T06:48:00.680Z,13.61
2022-09-16T06:49:05.462Z,13.71
2022-09-16T06:50:00.638Z,13.61
2022-09-16T06:51:00.633Z,13.67
2022-09-16T06:52:00.604Z,13.71
2022-09-16T06:53:00.578Z,13.75
2022-09-16T06:54:00.577Z,13.71
2022-09-16T06:55:00.541Z,13.72
2022-09-16T06:56:00.543Z,13.57
2022-09-16T06:57:00.495Z,13.61
2022-09-16T06:58:00.473Z,13.60
2022-09-16T06:59:00.739Z,13.60
2022-09-16T07:00:00.433Z,13.73
2022-09-16T07:01:00.487Z,13.72
2022-09-16T07:02:00.525Z,13.67
2022-09-16T07:03:00.372Z,13.67
2022-09-16T07:04:00.353Z,13.65
2022-09-16T07:05:00.385Z,13.80
2022-09-16T07:06:00.338Z,13.79
2022-09-16T07:07:15.534Z,13.88
2022-09-16T07:08:00.270Z,13.80
2022-09-16T07:09:00.256Z,13.86
2022-09-16T07:10:00.239Z,13.82
2022-09-16T07:11:00.214Z,13.88
2022-09-16T07:12:00.191Z,13.82
2022-09-16T07:13:00.195Z,13.86
2022-09-16T07:14:00.170Z,13.80
2022-09-16T07:15:00.241Z,13.82
2022-09-16T07:16:12.776Z,13.94
2022-09-16T07:17:00.125Z,13.90
2022-09-16T07:18:00.074Z,13.83
2022-09-16T07:19:01.178Z,13.91
2022-09-16T07:20:00.030Z,13.91
2022-09-16T07:21:00.029Z,13.93
2022-09-16T07:22:00.008Z,13.96
2022-09-16T07:23:00.017Z,13.90
2022-09-16T07:23:59.957Z,13.85
2022-09-16T07:24:59.933Z,13.86
2022-09-16T07:25:59.914Z,13.90
2022-09-16T07:26:59.893Z,13.86
2022-09-16T07:27:59.890Z,13.82
2022-09-16T07:28:59.872Z,13.80
2022-09-16T07:30:00.403Z,13.79
2022-09-16T07:31:00.028Z,13.82
2022-09-16T07:31:59.793Z,13.78
2022-09-16T07:32:59.775Z,13.80
2022-09-16T07:34:03.688Z,13.83
2022-09-16T07:34:59.753Z,13.86
2022-09-16T07:35:59.713Z,13.91
2022-09-16T07:36:59.693Z,14.01
2022-09-16T07:37:59.672Z,13.98
2022-09-16T07:38:59.653Z,13.97
2022-09-16T07:39:59.668Z,14.05
2022-09-16T07:40:59.618Z,14.04
2022-09-16T07:42:03.861Z,14.09
2022-09-16T07:42:59.574Z,14.19
2022-09-16T07:43:59.555Z,14.23
2022-09-16T07:44:59.545Z,14.27
2022-09-16T07:45:59.570Z,14.37
2022-09-16T07:46:59.588Z,14.45
2022-09-16T07:47:59.498Z,14.44
2022-09-16T07:48:59.451Z,14.55
2022-09-16T07:49:59.464Z,14.61
2022-09-16T07:50:59.416Z,14.64
2022-09-16T07:51:59.394Z,14.73
2022-09-16T07:52:59.371Z,14.90
2022-09-16T07:53:59.356Z,14.99
2022-09-16T07:54:59.357Z,15.01
2022-09-16T07:55:59.346Z,15.07
2022-09-16T07:56:59.311Z,15.08
2022-09-16T07:57:59.278Z,15.01
2022-09-16T07:58:59.271Z,15.19
2022-09-16T07:59:59.229Z,15.19
2022-09-16T08:01:04.015Z,15.20
2022-09-16T08:01:59.346Z,15.20
2022-09-16T08:02:59.357Z,15.23
2022-09-16T08:03:59.157Z,15.30
2022-09-16T08:04:59.140Z,15.20
2022-09-16T08:05:59.112Z,15.22
2022-09-16T08:06:59.121Z,15.23
2022-09-16T08:07:59.079Z,15.12
2022-09-16T08:09:02.449Z,15.10
2022-09-16T08:09:59.048Z,15.08
2022-09-16T08:10:59.025Z,15.15
2022-09-16T08:11:59.091Z,15.22
2022-09-16T08:12:58.983Z,15.32
2022-09-16T08:13:58.958Z,15.23
2022-09-16T08:14:58.957Z,15.35
2022-09-16T08:15:58.934Z,15.30
2022-09-16T08:16:59.024Z,15.32
2022-09-16T08:17:58.912Z,15.32
2022-09-16T08:18:58.967Z,15.35
2022-09-16T08:19:58.847Z,15.30
2022-09-16T08:20:58.843Z,15.40
2022-09-16T08:21:58.811Z,15.45
2022-09-16T08:22:58.795Z,15.40
2022-09-16T08:23:58.794Z,15.50
2022-09-16T08:24:58.746Z,15.40
2022-09-16T08:25:58.735Z,15.56
2022-09-16T08:26:58.729Z,15.48
2022-09-16T08:27:58.693Z,15.50
2022-09-16T08:29:08.450Z,15.56
2022-09-16T08:29:58.666Z,15.58
2022-09-16T08:30:58.650Z,15.68
2022-09-16T08:31:58.668Z,15.76
2022-09-16T08:32:58.594Z,15.68
2022-09-16T08:33:58.575Z,15.85
2022-09-16T08:34:58.668Z,15.96
2022-09-16T08:35:58.541Z,16.17
2022-09-16T08:36:58.517Z,16.25
2022-09-16T08:37:58.502Z,16.36
2022-09-16T08:38:58.527Z,16.49
2022-09-16T08:39:58.576Z,16.64
2022-09-16T08:40:58.441Z,16.72
2022-09-16T08:41:58.422Z,16.70
2022-09-16T08:42:58.402Z,16.65
2022-09-16T08:43:58.381Z,16.67
2022-09-16T08:44:58.362Z,16.61
2022-09-16T08:45:58.458Z,16.49
2022-09-16T08:46:58.342Z,16.46
2022-09-16T08:47:58.306Z,16.51
2022-09-16T08:48:58.280Z,16.43
2022-09-16T08:49:58.272Z,16.51
2022-09-16T08:50:58.361Z,16.57
2022-09-16T08:51:58.228Z,16.58
2022-09-16T08:52:58.235Z,16.49
2022-09-16T08:53:58.196Z,16.37
2022-09-16T08:54:58.197Z,16.52
2022-09-16T08:55:58.148Z,16.42
2022-09-16T08:56:58.137Z,16.58
2022-09-16T08:57:58.124Z,16.59
2022-09-16T08:58:58.142Z,16.70
2022-09-16T08:59:58.082Z,16.73
2022-09-16T09:00:58.132Z,16.64
2022-09-16T09:01:58.442Z,16.70
2022-09-16T09:02:58.019Z,16.80
2022-09-16T09:03:58.000Z,16.87
2022-09-16T09:04:57.982Z,16.92
2022-09-16T09:05:57.999Z,17.09
2022-09-16T09:06:58.056Z,17.24
2022-09-16T09:07:57.929Z,17.37
2022-09-16T09:08:57.908Z,17.43
2022-09-16T09:09:57.891Z,17.49
2022-09-16T09:10:57.876Z,17.63
2022-09-16T09:11:58.044Z,17.63
2022-09-16T09:12:59.281Z,17.52
2022-09-16T09:13:57.814Z,17.62
2022-09-16T09:14:57.805Z,17.75
2022-09-16T09:15:57.816Z,17.88
2022-09-16T09:16:57.807Z,18.17
2022-09-16T09:17:57.764Z,18.09
2022-09-16T09:18:57.728Z,18.23
2022-09-16T09:19:57.724Z,18.76
2022-09-16T09:20:57.697Z,18.96
2022-09-16T09:21:57.685Z,19.05
2022-09-16T09:22:57.795Z,19.39
2022-09-16T09:23:57.645Z,19.56
2022-09-16T09:24:57.629Z,19.81
2022-09-16T09:25:57.649Z,19.86
2022-09-16T09:26:57.593Z,19.62
2022-09-16T09:27:57.604Z,19.62
2022-09-16T09:28:57.559Z,18.91
2022-09-16T09:29:57.547Z,18.38
2022-09-16T09:30:57.521Z,18.03
2022-09-16T09:31:57.549Z,17.93
2022-09-16T09:32:57.577Z,17.46
2022-09-16T09:33:57.494Z,17.63
2022-09-16T09:34:57.453Z,17.54
2022-09-16T09:35:57.443Z,17.43
2022-09-16T09:36:57.424Z,17.75
2022-09-16T09:37:57.409Z,17.91
2022-09-16T09:38:57.508Z,18.23
2022-09-16T09:39:57.500Z,18.51
2022-09-16T09:40:57.371Z,18.45
2022-09-16T09:41:57.342Z,18.34
2022-09-16T09:42:57.325Z,18.05
2022-09-16T09:43:57.359Z,18.03
2022-09-16T09:44:59.829Z,18.08
2022-09-16T09:45:57.347Z,18.02
2022-09-16T09:46:57.253Z,18.11
2022-09-16T09:47:57.240Z,18.30
2022-09-16T09:48:57.242Z,18.17
2022-09-16T09:49:57.207Z,18.05
2022-09-16T09:50:57.211Z,17.90
2022-09-16T09:51:57.173Z,17.79
2022-09-16T09:52:57.180Z,17.72
2022-09-16T09:53:57.158Z,17.66
2022-09-16T09:54:57.233Z,17.41
2022-09-16T09:55:57.126Z,17.20
2022-09-16T09:56:57.091Z,16.97
2022-09-16T09:57:57.071Z,16.67
2022-09-16T09:58:57.117Z,16.64
2022-09-16T09:59:57.038Z,16.51
2022-09-16T10:00:57.093Z,16.39
2022-09-16T10:01:57.043Z,16.37
2022-09-16T10:02:56.992Z,16.34
2022-09-16T10:03:56.967Z,16.26
2022-09-16T10:04:56.963Z,16.16
2022-09-16T10:05:56.955Z,16.09
2022-09-16T10:06:56.996Z,16.09
2022-09-16T10:07:56.896Z,16.08
2022-09-16T10:08:56.909Z,16.13
2022-09-16T10:09:56.860Z,16.08
2022-09-16T10:10:56.951Z,16.16
2022-09-16T10:11:56.837Z,16.22
2022-09-16T10:12:56.806Z,16.22
2022-09-16T10:13:56.832Z,16.29
2022-09-16T10:14:56.767Z,16.28
2022-09-16T10:15:56.799Z,16.34
2022-09-16T10:16:56.757Z,16.34
2022-09-16T10:17:56.718Z,16.28
2022-09-16T10:18:56.701Z,16.33
2022-09-16T10:19:56.670Z,16.32
2022-09-16T10:20:56.693Z,16.33
2022-09-16T10:21:56.641Z,16.25
2022-09-16T10:22:56.628Z,16.26
2022-09-16T10:23:56.607Z,16.17
2022-09-16T10:24:56.585Z,16.14
2022-09-16T10:25:56.590Z,16.05
2022-09-16T10:26:56.675Z,16.00
2022-09-16T10:27:56.526Z,16.00
2022-09-16T10:28:56.554Z,15.99
2022-09-16T10:29:56.499Z,16.10
2022-09-16T10:30:56.475Z,16.05
2022-09-16T10:31:56.548Z,16.10
2022-09-16T10:32:56.439Z,16.00
2022-09-16T10:33:56.419Z,16.10
2022-09-16T10:34:56.406Z,16.05
2022-09-16T10:35:56.383Z,16.06
2022-09-16T10:36:56.367Z,16.09
2022-09-16T10:37:56.375Z,16.06
2022-09-16T10:38:58.668Z,15.99
2022-09-16T10:39:56.349Z,16.00
2022-09-16T10:40:56.289Z,15.95
2022-09-16T10:41:56.267Z,15.96
2022-09-16T10:42:56.358Z,15.88
2022-09-16T10:43:56.246Z,15.84
2022-09-16T10:44:56.216Z,15.96
2022-09-16T10:45:56.249Z,16.22
2022-09-16T10:46:56.175Z,16.69
2022-09-16T10:47:56.151Z,17.31
2022-09-16T10:48:56.139Z,17.72
2022-09-16T10:49:56.140Z,18.06
2022-09-16T10:50:56.103Z,18.18
2022-09-16T10:51:56.077Z,18.12
2022-09-16T10:52:56.100Z,18.08
2022-09-16T10:53:56.137Z,17.96
2022-09-16T10:54:56.047Z,17.90
2022-09-16T10:55:56.034Z,17.62
2022-09-16T10:56:55.999Z,17.46
2022-09-16T10:57:55.997Z,17.31
2022-09-16T10:58:56.061Z,17.10
2022-09-16T10:59:55.943Z,16.83
2022-09-16T11:00:55.964Z,16.49
2022-09-16T11:01:56.277Z,16.37
2022-09-16T11:02:55.897Z,16.36
2022-09-16T11:03:55.869Z,16.29
2022-09-16T11:04:55.846Z,16.25
2022-09-16T11:05:55.852Z,16.13
2022-09-16T11:06:55.818Z,16.14
2022-09-16T11:07:55.802Z,16.10
2022-09-16T11:08:55.787Z,16.03
2022-09-16T11:09:55.758Z,16.09
2022-09-16T11:10:55.761Z,16.08
2022-09-16T11:11:55.743Z,16.03
2022-09-16T11:12:55.763Z,16.02
2022-09-16T11:13:55.687Z,16.09
2022-09-16T11:14:55.765Z,16.13
2022-09-16T11:15:55.695Z,16.14
2022-09-16T11:16:55.655Z,16.17
2022-09-16T11:17:55.640Z,16.21
2022-09-16T11:18:55.598Z,16.28
2022-09-16T11:19:55.570Z,16.42
2022-09-16T11:20:55.554Z,16.69
2022-09-16T11:21:55.542Z,17.01
2022-09-16T11:22:55.516Z,17.63
2022-09-16T11:23:55.511Z,18.18
2022-09-16T11:24:55.496Z,18.52
2022-09-16T11:25:55.466Z,18.61
2022-09-16T11:26:55.443Z,18.76
2022-09-16T11:27:55.429Z,18.68
2022-09-16T11:28:55.432Z,18.46
2022-09-16T11:29:55.389Z,18.20
2022-09-16T11:30:55.605Z,17.94
2022-09-16T11:31:55.415Z,17.63
2022-09-16T11:32:56.971Z,17.46
2022-09-16T11:33:55.339Z,17.14
2022-09-16T11:34:55.310Z,16.99
2022-09-16T11:35:55.302Z,16.61
2022-09-16T11:36:55.267Z,16.34
2022-09-16T11:37:55.257Z,15.83
2022-09-16T11:38:55.342Z,15.47
2022-09-16T11:39:55.270Z,15.05
2022-09-16T11:40:55.201Z,14.69
2022-09-16T11:41:55.197Z,14.45
2022-09-16T11:42:55.167Z,14.15
2022-09-16T11:43:55.187Z,13.82
2022-09-16T11:44:55.124Z,13.46
2022-09-16T11:45:55.100Z,13.27
2022-09-16T11:46:55.295Z,13.09
2022-09-16T11:47:55.077Z,13.09
2022-09-16T11:48:55.059Z,13.02
2022-09-16T11:49:55.045Z,12.99
2022-09-16T11:50:55.026Z,12.99
2022-09-16T11:51:55.004Z,12.96
2022-09-16T11:52:57.548Z,12.96
2022-09-16T11:53:55.364Z,12.96
2022-09-16T11:54:54.931Z,12.96
2022-09-16T11:55:54.909Z,12.80
2022-09-16T11:56:54.890Z,12.86
2022-09-16T11:57:54.896Z,12.98
2022-09-16T11:58:54.880Z,13.02
2022-09-16T11:59:54.836Z,12.93
2022-09-16T12:00:54.814Z,13.06
2022-09-16T12:01:54.850Z,12.99
2022-09-16T12:02:54.993Z,12.88
2022-09-16T12:03:54.781Z,12.93
2022-09-16T12:04:54.753Z,13.05
2022-09-16T12:05:54.720Z,13.08
2022-09-16T12:06:54.688Z,13.14
2022-09-16T12:07:54.703Z,13.29
2022-09-16T12:08:54.678Z,13.36
2022-09-16T12:09:54.631Z,13.32
2022-09-16T12:10:54.616Z,13.26
2022-09-16T12:11:54.596Z,13.36
2022-09-16T12:12:54.572Z,13.30
2022-09-16T12:14:05.736Z,13.46
2022-09-16T12:14:54.555Z,13.58
2022-09-16T12:15:54.528Z,13.76
2022-09-16T12:16:54.502Z,13.83
2022-09-16T12:17:54.474Z,13.91
2022-09-16T12:18:54.553Z,13.98
2022-09-16T12:19:54.473Z,14.00
2022-09-16T12:20:54.422Z,14.21
2022-09-16T12:21:57.902Z,14.34
2022-09-16T12:22:54.373Z,14.55
2022-09-16T12:23:54.364Z,14.77
2022-09-16T12:24:54.345Z,14.97
2022-09-16T12:25:54.330Z,15.23
2022-09-16T12:26:54.322Z,15.19
2022-09-16T12:27:54.274Z,15.15
2022-09-16T12:28:54.260Z,15.04
2022-09-16T12:29:54.236Z,15.17
2022-09-16T12:30:54.283Z,14.99
2022-09-16T12:31:54.198Z,14.89
2022-09-16T12:32:54.194Z,14.89
2022-09-16T12:33:54.246Z,14.90
2022-09-16T12:34:54.241Z,14.90
2022-09-16T12:35:54.132Z,14.90
2022-09-16T12:36:54.110Z,14.73
2022-09-16T12:37:54.103Z,14.61
2022-09-16T12:38:54.095Z,14.38
2022-09-16T12:39:54.084Z,14.33
2022-09-16T12:40:54.858Z,14.45
2022-09-16T12:41:54.056Z,14.36
2022-09-16T12:42:53.988Z,14.21
2022-09-16T12:43:59.003Z,14.21
2022-09-16T12:44:54.935Z,14.26
2022-09-16T12:45:53.944Z,14.31
2022-09-16T12:46:53.974Z,14.44
2022-09-16T12:47:53.939Z,14.45
2022-09-16T12:48:53.871Z,14.46
2022-09-16T12:49:53.863Z,14.44
2022-09-16T12:50:53.946Z,14.73
2022-09-16T12:51:53.810Z,14.89